createdAt,value
2022-11-08T00:01:11.634Z,0.85
2022-11-08T00:03:39.665Z,8.32
2022-11-08T00:06:29.584Z,1.60
2022-11-08T00:09:15.092Z,1.67
2022-11-08T00:12:01.760Z,3.80
2022-11-08T00:14:30.260Z,1.33
2022-11-08T00:16:58.110Z,1.67
2022-11-08T00:19:29.151Z,0.82
2022-11-08T00:21:59.718Z,1.15
2022-11-08T00:24:27.800Z,2.85
2022-11-08T00:26:57.018Z,2.80
2022-11-08T00:29:29.675Z,1.45
2022-11-08T00:31:57.692Z,1.92
2022-11-08T00:34:31.913Z,1.45
2022-11-08T00:37:04.675Z,0.25
2022-11-08T00:39:38.564Z,2.05
2022-11-08T00:42:08.396Z,1.35
2022-11-08T00:44:36.489Z,0.40
2022-11-08T00:47:04.620Z,0.40
2022-11-08T00:49:33.495Z,0.40
2022-11-08T00:52:01.874Z,0.82
2022-11-08T00:54:30.170Z,0.52
2022-11-08T00:57:00.836Z,1.02
2022-11-08T00:59:30.762Z,0.43
2022-11-08T01:01:59.091Z,0.90
2022-11-08T01:04:27.530Z,1.77
2022-11-08T01:06:55.493Z,1.33
2022-11-08T01:09:23.376Z,0.80
2022-11-08T01:11:51.224Z,3.67
2022-11-08T01:14:19.185Z,1.05
2022-11-08T01:16:48.422Z,1.38
2022-11-08T01:19:16.350Z,1.48
2022-11-08T01:21:44.421Z,0.40
2022-11-08T01:24:12.333Z,0.68
2022-11-08T01:26:40.336Z,0.47
2022-11-08T01:29:08.361Z,0.35
2022-11-08T01:31:36.205Z,0.63
2022-11-08T01:34:05.585Z,0.93
2022-11-08T01:36:33.575Z,0.40
2022-11-08T01:39:01.488Z,0.60
2022-11-08T01:41:29.370Z,1.17
2022-11-08T01:43:58.997Z,0.20
2022-11-08T01:46:46.500Z,0.50
2022-11-08T01:49:44.682Z,0.80
2022-11-08T01:52:26.876Z,1.30
2022-11-08T01:55:01.641Z,0.22
2022-11-08T01:57:34.638Z,0.20
2022-11-08T02:00:08.247Z,0.50
2022-11-08T02:02:38.184Z,0.35
2022-11-08T02:05:24.955Z,0.32
2022-11-08T02:08:00.466Z,0.55
2022-11-08T02:10:35.864Z,0.40
2022-11-08T02:13:05.459Z,1.10
2022-11-08T02:15:34.602Z,1.40
2022-11-08T02:18:03.290Z,0.40
2022-11-08T02:20:33.133Z,0.30
2022-11-08T02:23:15.573Z,0.50
2022-11-08T02:25:44.833Z,0.32
2022-11-08T02:28:12.776Z,0.57
2022-11-08T02:30:40.671Z,0.32
2022-11-08T02:33:19.557Z,0.43
2022-11-08T02:35:50.617Z,1.15
2022-11-08T02:38:19.165Z,1.60
2022-11-08T02:40:49.766Z,0.10
2022-11-08T02:43:17.898Z,0.20
2022-11-08T02:45:46.060Z,0.38
2022-11-08T02:48:14.353Z,0.57
2022-11-08T02:50:42.566Z,1.55
2022-11-08T02:53:11.151Z,0.40
2022-11-08T02:55:39.212Z,0.52
2022-11-08T02:58:08.484Z,1.20
2022-11-08T03:00:36.465Z,0.30
2022-11-08T03:03:04.713Z,0.75
2022-11-08T03:05:33.214Z,0.80
2022-11-08T03:08:01.313Z,0.45
2022-11-08T03:10:29.658Z,0.65
2022-11-08T03:12:58.063Z,0.52
2022-11-08T03:15:27.437Z,1.02
2022-11-08T03:17:56.678Z,0.45
2022-11-08T03:20:29.671Z,0.63
2022-11-08T03:23:01.161Z,0.52
2022-11-08T03:25:29.357Z,1.42
2022-11-08T03:27:57.435Z,1.27
2022-11-08T03:30:25.372Z,0.95
2022-11-08T03:32:54.835Z,0.52
2022-11-08T03:35:22.694Z,0.10
2022-11-08T03:37:52.138Z,0.60
2022-11-08T03:40:20.354Z,0.40
2022-11-08T03:42:48.587Z,0.60
2022-11-08T03:45:17.220Z,2.08
2022-11-08T03:47:46.542Z,1.25
2022-11-08T03:50:17.314Z,0.30
2022-11-08T03:52:47.513Z,0.40
2022-11-08T03:55:16.010Z,0.45
2022-11-08T03:57:45.944Z,1.95
2022-11-08T04:00:16.629Z,0.65
2022-11-08T04:02:44.574Z,0.25
2022-11-08T04:05:13.772Z,0.45
2022-11-08T04:07:43.562Z,0.68
2022-11-08T04:10:12.594Z,0.50
2022-11-08T04:12:58.935Z,0.82
2022-11-08T04:15:27.465Z,0.75
2022-11-08T04:18:13.561Z,0.38
2022-11-08T04:20:59.724Z,0.40
2022-11-08T04:23:30.038Z,0.43
2022-11-08T04:25:59.558Z,0.88
2022-11-08T04:28:28.514Z,0.45
2022-11-08T04:30:57.866Z,0.82
2022-11-08T04:33:26.480Z,1.27
2022-11-08T04:35:54.745Z,0.85
2022-11-08T04:38:23.169Z,0.30
2022-11-08T04:40:52.662Z,0.43
2022-11-08T04:43:20.588Z,0.40
2022-11-08T04:45:48.537Z,1.08
2022-11-08T04:48:16.728Z,0.55
2022-11-08T04:50:45.034Z,0.52
2022-11-08T04:53:13.122Z,2.53
2022-11-08T04:55:40.960Z,1.02
2022-11-08T04:58:10.225Z,1.85
2022-11-08T05:00:38.214Z,0.90
2022-11-08T05:03:06.046Z,1.48
2022-11-08T05:05:34.007Z,1.88
2022-11-08T05:08:02.075Z,1.67
2022-11-08T05:10:30.029Z,1.63
2022-11-08T05:12:58.801Z,2.50
2022-11-08T05:15:28.295Z,1.52
2022-11-08T05:17:56.178Z,1.88
2022-11-08T05:20:41.762Z,1.92
2022-11-08T05:23:26.703Z,1.42
2022-11-08T05:25:56.237Z,1.88
2022-11-08T05:28:24.303Z,1.42
2022-11-08T05:30:57.900Z,2.65
2022-11-08T05:33:26.067Z,1.55
2022-11-08T05:35:54.375Z,0.88
2022-11-08T05:38:22.884Z,2.10
2022-11-08T05:40:50.787Z,1.85
2022-11-08T05:43:18.928Z,2.92
2022-11-08T05:45:47.236Z,2.90
2022-11-08T05:48:16.832Z,1.60
2022-11-08T05:50:45.030Z,2.90
2022-11-08T05:53:13.289Z,2.70
2022-11-08T05:55:41.257Z,1.50
2022-11-08T05:58:09.392Z,3.20
2022-11-08T06:00:37.617Z,3.38
2022-11-08T06:03:06.808Z,1.70
2022-11-08T06:05:36.636Z,3.13
2022-11-08T06:08:05.062Z,2.92
2022-11-08T06:10:33.026Z,3.38
2022-11-08T06:13:01.802Z,2.72
2022-11-08T06:15:29.848Z,1.77
2022-11-08T06:17:57.817Z,3.42
2022-11-08T06:20:25.840Z,3.00
2022-11-08T06:22:55.576Z,3.28
2022-11-08T06:25:23.527Z,4.20
2022-11-08T06:27:51.710Z,2.95
2022-11-08T06:30:20.173Z,3.28
2022-11-08T06:32:48.096Z,2.97
2022-11-08T06:35:16.025Z,1.10
2022-11-08T06:37:44.436Z,2.25
2022-11-08T06:40:14.015Z,3.42
2022-11-08T06:42:41.858Z,2.58
2022-11-08T06:45:10.565Z,2.40
2022-11-08T06:47:38.434Z,3.58
2022-11-08T06:50:07.576Z,1.80
2022-11-08T06:52:36.125Z,2.75
2022-11-08T06:55:04.411Z,4.22
2022-11-08T06:57:34.858Z,4.68
2022-11-08T07:00:02.995Z,3.30
2022-11-08T07:02:30.999Z,5.97
2022-11-08T07:04:58.921Z,5.68
2022-11-08T07:07:26.993Z,2.78
2022-11-08T07:09:58.307Z,2.58
2022-11-08T07:12:28.850Z,2.30
2022-11-08T07:14:58.038Z,2.05
2022-11-08T07:17:25.925Z,4.18
2022-11-08T07:19:53.953Z,2.65
2022-11-08T07:22:21.823Z,3.30
2022-11-08T07:24:49.708Z,1.42
2022-11-08T07:27:17.838Z,4.75
2022-11-08T07:29:45.750Z,1.42
2022-11-08T07:32:14.981Z,1.80
2022-11-08T07:34:43.238Z,2.25
2022-11-08T07:37:11.080Z,1.40
2022-11-08T07:39:38.962Z,2.53
2022-11-08T07:42:07.073Z,2.25
2022-11-08T07:44:34.937Z,2.72
2022-11-08T07:47:02.796Z,3.30
2022-11-08T07:49:32.235Z,1.95
2022-11-08T07:52:00.136Z,3.85
2022-11-08T07:54:27.976Z,5.50
2022-11-08T07:56:56.104Z,2.22
2022-11-08T07:59:23.945Z,2.65
2022-11-08T08:01:51.824Z,3.53
2022-11-08T08:04:20.062Z,6.68
2022-11-08T08:06:50.035Z,4.43
2022-11-08T08:09:17.889Z,3.13
2022-11-08T08:11:45.945Z,3.35
2022-11-08T08:14:13.916Z,2.20
2022-11-08T08:16:41.787Z,2.25
2022-11-08T08:19:09.955Z,1.63
2022-11-08T08:21:37.980Z,4.10
2022-11-08T08:24:07.753Z,5.70
2022-11-08T08:26:35.848Z,2.25
2022-11-08T08:29:03.722Z,3.83
2022-11-08T08:31:31.620Z,3.10
2022-11-08T08:33:59.611Z,1.58
2022-11-08T08:36:27.541Z,3.90
2022-11-08T08:38:55.412Z,3.40
2022-11-08T08:41:24.931Z,2.30
2022-11-08T08:43:52.836Z,3.53
2022-11-08T08:46:20.771Z,2.75
2022-11-08T08:48:49.025Z,2.67
2022-11-08T08:51:16.939Z,4.10
2022-11-08T08:53:44.808Z,3.28
2022-11-08T08:56:12.910Z,2.22
2022-11-08T08:58:42.334Z,3.88
2022-11-08T09:03:59.249Z,2.10
2022-11-08T09:06:27.226Z,2.47
2022-11-08T09:08:55.102Z,3.63
2022-11-08T09:11:23.117Z,5.10
2022-11-08T09:13:52.348Z,2.50
2022-11-08T09:16:20.253Z,2.70
2022-11-08T09:18:48.358Z,2.42
2022-11-08T09:21:16.283Z,4.93
2022-11-08T09:23:44.206Z,4.70
2022-11-08T09:26:12.629Z,5.22
2022-11-08T09:28:40.532Z,4.18
2022-11-08T09:31:12.447Z,6.25
2022-11-08T09:33:42.004Z,4.32
2022-11-08T09:36:13.623Z,3.83
2022-11-08T09:38:42.054Z,2.70
2022-11-08T09:41:28.663Z,3.88
2022-11-08T09:44:12.210Z,4.28
2022-11-08T09:46:49.327Z,3.42
2022-11-08T09:49:22.689Z,3.28
2022-11-08T09:51:51.205Z,2.38
2022-11-08T09:54:24.951Z,2.08
2022-11-08T09:56:55.657Z,2.03
2022-11-08T09:59:38.807Z,2.70
2022-11-08T10:02:17.210Z,3.15
2022-11-08T10:04:50.455Z,2.10
2022-11-08T10:07:30.373Z,1.48
2022-11-08T10:10:34.024Z,1.55
2022-11-08T10:13:09.661Z,1.48
2022-11-08T10:15:46.422Z,1.67
2022-11-08T10:18:44.124Z,2.03
2022-11-08T10:21:21.026Z,2.58
2022-11-08T10:23:58.297Z,1.60
2022-11-08T10:26:34.918Z,1.85
2022-11-08T10:29:09.874Z,2.25
2022-11-08T10:31:41.740Z,1.23
2022-11-08T10:34:16.240Z,3.13
2022-11-08T10:36:47.931Z,2.90
2022-11-08T10:39:21.491Z,2.92
2022-11-08T10:41:55.402Z,4.00
2022-11-08T10:44:25.663Z,0.90
2022-11-08T10:47:01.462Z,1.02
2022-11-08T10:49:32.736Z,1.45
2022-11-08T10:52:02.870Z,1.88
2022-11-08T10:54:48.974Z,1.20
2022-11-08T10:57:18.891Z,1.67
2022-11-08T10:59:47.044Z,1.38
2022-11-08T11:02:25.144Z,2.28
2022-11-08T11:05:14.028Z,1.15
2022-11-08T11:07:42.454Z,1.60
2022-11-08T11:10:23.932Z,4.20
2022-11-08T11:12:52.803Z,2.65
2022-11-08T11:15:20.694Z,0.98
2022-11-08T11:17:48.839Z,0.80
2022-11-08T11:20:26.196Z,2.30
2022-11-08T11:22:54.567Z,0.82
2022-11-08T11:25:24.612Z,0.57
2022-11-08T11:27:56.421Z,0.50
2022-11-08T11:30:30.641Z,2.03
2022-11-08T11:33:02.396Z,1.38
2022-11-08T11:35:39.746Z,0.70
2022-11-08T11:38:23.826Z,1.20
2022-11-08T11:40:54.384Z,1.77
2022-11-08T11:43:29.084Z,1.65
2022-11-08T11:46:02.451Z,1.33
2022-11-08T11:48:32.319Z,0.98
2022-11-08T11:51:03.350Z,0.50
2022-11-08T11:53:38.775Z,1.38
2022-11-08T11:56:37.823Z,0.88
2022-11-08T11:59:30.918Z,0.85
2022-11-08T12:02:24.369Z,1.45
2022-11-08T12:05:14.874Z,1.30
2022-11-08T12:07:47.870Z,0.60
2022-11-08T12:10:24.591Z,0.47
2022-11-08T12:13:02.032Z,1.23
2022-11-08T12:15:35.576Z,0.95
2022-11-08T12:18:41.545Z,2.38
2022-11-08T12:21:15.265Z,1.33
2022-11-08T12:24:01.896Z,1.65
2022-11-08T12:26:38.511Z,1.70
2022-11-08T12:29:23.900Z,2.17
2022-11-08T12:32:05.727Z,3.70
2022-11-08T12:34:45.200Z,1.60
2022-11-08T12:37:23.262Z,1.20
2022-11-08T12:40:00.676Z,0.77
2022-11-08T12:42:44.901Z,1.48
2022-11-08T12:45:43.507Z,1.15
2022-11-08T12:48:23.647Z,2.17
2022-11-08T12:51:01.517Z,2.22
2022-11-08T12:53:54.906Z,0.93
2022-11-08T12:56:28.721Z,1.85
2022-11-08T12:58:57.769Z,0.77
2022-11-08T13:01:25.830Z,0.40
2022-11-08T13:04:06.540Z,0.60
2022-11-08T13:06:44.329Z,1.65
2022-11-08T13:09:20.975Z,0.55
2022-11-08T13:11:57.712Z,1.50
2022-11-08T13:14:26.498Z,0.55
2022-11-08T13:17:22.596Z,1.67
2022-11-08T13:20:04.418Z,1.70
2022-11-08T13:22:58.732Z,2.10
2022-11-08T13:25:37.726Z,2.50
2022-11-08T13:28:38.778Z,3.13
2022-11-08T13:31:17.292Z,3.03
2022-11-08T13:33:56.119Z,2.10
2022-11-08T13:36:36.740Z,3.80
2022-11-08T13:39:22.867Z,4.53
2022-11-08T13:42:06.909Z,5.45
2022-11-08T13:44:59.174Z,4.78
2022-11-08T13:47:56.754Z,3.22
2022-11-08T13:50:50.919Z,3.55
2022-11-08T13:53:49.860Z,4.88
2022-11-08T13:56:40.713Z,6.68
2022-11-08T13:59:50.976Z,4.70
2022-11-08T14:02:39.899Z,3.25
2022-11-08T14:05:29.310Z,4.72
2022-11-08T14:08:14.550Z,3.95
2022-11-08T14:10:59.391Z,8.52
2022-11-08T14:13:35.309Z,5.45
2022-11-08T14:16:07.802Z,8.27
2022-11-08T14:18:39.268Z,5.03
2022-11-08T14:21:08.816Z,7.47
2022-11-08T14:23:40.366Z,5.68
2022-11-08T14:26:13.530Z,6.10
2022-11-08T14:28:43.904Z,5.35
2022-11-08T14:31:25.593Z,5.18
2022-11-08T14:33:55.837Z,3.20
2022-11-08T14:36:26.496Z,4.57
2022-11-08T14:39:03.951Z,7.60
2022-11-08T14:41:34.305Z,7.40
2022-11-08T14:44:03.822Z,5.90
2022-11-08T14:46:34.002Z,3.33
2022-11-08T14:49:12.432Z,6.35
2022-11-08T14:51:40.742Z,9.73
2022-11-08T14:54:17.607Z,5.85
2022-11-08T14:56:46.155Z,3.75
2022-11-08T14:59:14.896Z,6.75
2022-11-08T15:01:48.870Z,4.93
2022-11-08T15:04:20.723Z,10.23
2022-11-08T15:06:53.116Z,5.43
2022-11-08T15:09:26.332Z,5.60
2022-11-08T15:11:57.974Z,7.57
2022-11-08T15:14:28.455Z,5.47
2022-11-08T15:17:02.763Z,4.20
2022-11-08T15:19:39.278Z,5.60
2022-11-08T15:22:26.678Z,4.35
2022-11-08T15:25:02.578Z,4.20
2022-11-08T15:27:30.700Z,5.35
2022-11-08T15:30:04.501Z,4.05
2022-11-08T15:32:38.131Z,2.80
2022-11-08T15:35:18.930Z,4.35
2022-11-08T15:37:49.368Z,3.47
2022-11-08T15:40:20.315Z,4.53
2022-11-08T15:42:49.922Z,4.20
2022-11-08T15:45:26.925Z,3.88
2022-11-08T15:48:01.084Z,4.05
2022-11-08T15:50:31.731Z,3.78
2022-11-08T15:53:01.223Z,5.57
2022-11-08T15:55:32.394Z,3.92
2022-11-08T15:58:00.689Z,6.70
2022-11-08T16:00:31.712Z,3.60
2022-11-08T16:02:59.974Z,5.55
2022-11-08T16:05:31.922Z,7.13
2022-11-08T16:08:00.571Z,4.25
2022-11-08T16:10:32.687Z,7.45
2022-11-08T16:13:01.572Z,6.65
2022-11-08T16:15:32.298Z,7.22
2022-11-08T16:18:00.729Z,4.82
2022-11-08T16:20:31.893Z,10.38
2022-11-08T16:23:01.784Z,5.32
2022-11-08T16:25:32.406Z,10.02
2022-11-08T16:28:08.368Z,4.75
2022-11-08T16:30:36.911Z,6.03
2022-11-08T16:33:19.955Z,6.50
2022-11-08T16:35:49.851Z,5.50
2022-11-08T16:38:30.932Z,5.88
2022-11-08T16:40:59.219Z,5.18
2022-11-08T16:43:27.142Z,6.43
2022-11-08T16:46:10.946Z,5.70
2022-11-08T16:48:40.762Z,5.60
2022-11-08T16:51:19.392Z,4.60
2022-11-08T16:53:48.509Z,5.60
2022-11-08T16:56:17.053Z,9.27
2022-11-08T16:58:45.499Z,6.47
2022-11-08T17:01:16.025Z,7.38
2022-11-08T17:03:44.052Z,10.88
2022-11-08T17:06:18.337Z,9.27
2022-11-08T17:08:46.809Z,5.18
2022-11-08T17:11:18.064Z,6.65
2022-11-08T17:13:46.023Z,8.93
2022-11-08T17:16:15.408Z,7.75
2022-11-08T17:18:43.599Z,8.15
2022-11-08T17:21:43.163Z,8.73
2022-11-08T17:24:04.227Z,7.70
2022-11-08T17:26:32.285Z,5.43
2022-11-08T17:29:00.135Z,9.40
2022-11-08T17:31:28.255Z,8.10
2022-11-08T17:33:56.393Z,10.52
2022-11-08T17:36:25.696Z,13.80
2022-11-08T17:38:53.882Z,9.90
2022-11-08T17:41:22.203Z,12.55
2022-11-08T17:43:50.791Z,11.20
2022-11-08T17:46:18.789Z,13.63
2022-11-08T17:48:46.825Z,12.27
2022-11-08T17:51:15.725Z,9.48
2022-11-08T17:53:45.140Z,9.57
2022-11-08T17:56:13.476Z,12.23
2022-11-08T17:58:42.039Z,9.38
2022-11-08T18:01:10.404Z,14.15
2022-11-08T18:03:38.475Z,13.90
2022-11-08T18:06:09.835Z,14.82
2022-11-08T18:08:37.811Z,14.18
2022-11-08T18:11:07.790Z,10.60
2022-11-08T18:13:36.556Z,15.68
2022-11-08T18:16:09.924Z,16.10
2022-11-08T18:18:38.071Z,15.93
2022-11-08T18:21:06.571Z,16.70
2022-11-08T18:23:34.789Z,11.65
2022-11-08T18:26:03.211Z,15.27
2022-11-08T18:28:33.120Z,14.05
2022-11-08T18:31:08.043Z,17.98
2022-11-08T18:33:37.429Z,15.73
2022-11-08T18:36:06.950Z,21.17
2022-11-08T18:38:39.194Z,16.30
2022-11-08T18:41:07.616Z,17.20
2022-11-08T18:43:37.664Z,18.02
2022-11-08T18:46:07.661Z,15.68
2022-11-08T18:48:36.513Z,17.45
2022-11-08T18:51:04.835Z,13.07
2022-11-08T18:53:33.076Z,16.52
2022-11-08T18:56:01.502Z,19.67
2022-11-08T18:58:29.689Z,14.40
2022-11-08T19:00:59.557Z,14.88
2022-11-08T19:03:28.565Z,12.25
2022-11-08T19:05:56.584Z,12.68
2022-11-08T19:08:27.163Z,15.20
2022-11-08T19:10:56.758Z,15.45
2022-11-08T19:13:26.711Z,15.00
2022-11-08T19:16:00.657Z,18.13
2022-11-08T19:18:29.692Z,14.32
2022-11-08T19:20:58.605Z,16.23
2022-11-08T19:23:27.015Z,16.65
2022-11-08T19:25:56.420Z,14.88
2022-11-08T19:28:27.064Z,17.55
2022-11-08T19:31:00.034Z,18.13
2022-11-08T19:33:29.852Z,14.60
2022-11-08T19:36:02.797Z,15.70
2022-11-08T19:38:32.353Z,15.80
2022-11-08T19:41:02.570Z,14.90
2022-11-08T19:43:31.210Z,14.07
2022-11-08T19:46:03.868Z,24.48
2022-11-08T19:48:32.824Z,15.02
2022-11-08T19:51:02.795Z,14.13
2022-11-08T19:53:30.911Z,13.65
2022-11-08T19:56:02.367Z,13.02
2022-11-08T19:58:30.290Z,14.25
2022-11-08T20:00:58.275Z,18.42
2022-11-08T20:03:27.694Z,14.73
2022-11-08T20:05:55.840Z,15.55
2022-11-08T20:08:23.754Z,14.35
2022-11-08T20:10:51.957Z,15.80
2022-11-08T20:13:20.003Z,19.10
2022-11-08T20:15:48.110Z,15.52
2022-11-08T20:18:16.743Z,13.38
2022-11-08T20:20:46.270Z,15.18
2022-11-08T20:23:17.376Z,13.63
2022-11-08T20:25:45.445Z,18.33
2022-11-08T20:28:13.328Z,17.05
2022-11-08T20:30:41.625Z,15.75
2022-11-08T20:33:09.623Z,17.52
2022-11-08T20:35:38.708Z,16.73
2022-11-08T20:38:08.015Z,15.18
2022-11-08T20:40:38.495Z,15.75
2022-11-08T20:43:06.473Z,16.75
2022-11-08T20:45:34.581Z,16.38
2022-11-08T20:48:03.010Z,14.70
2022-11-08T20:50:31.033Z,18.40
2022-11-08T20:52:58.954Z,14.57
2022-11-08T20:55:29.492Z,14.15
2022-11-08T20:57:57.736Z,14.82
2022-11-08T21:00:52.119Z,17.02
2022-11-08T21:03:18.777Z,13.68
2022-11-08T21:05:52.163Z,16.92
2022-11-08T21:11:12.431Z,16.05
2022-11-08T21:13:42.927Z,15.70
2022-11-08T21:16:28.821Z,18.52
2022-11-08T21:18:58.663Z,14.20
2022-11-08T21:21:27.237Z,15.27
2022-11-08T21:23:55.524Z,16.58
2022-11-08T21:26:25.242Z,16.45
2022-11-08T21:28:53.310Z,14.65
2022-11-08T21:31:21.213Z,16.90
2022-11-08T21:33:49.319Z,14.27
2022-11-08T21:36:18.454Z,13.80
2022-11-08T21:38:46.755Z,17.90
2022-11-08T21:41:15.064Z,13.57
2022-11-08T21:43:46.262Z,15.52
2022-11-08T21:46:18.178Z,15.88
2022-11-08T21:48:47.457Z,17.58
2022-11-08T21:51:17.040Z,18.58
2022-11-08T21:53:54.015Z,17.27
2022-11-08T21:56:22.916Z,16.25
2022-11-08T21:58:52.776Z,13.43
2022-11-08T22:01:24.296Z,15.40
2022-11-08T22:03:55.478Z,16.40
2022-11-08T22:06:24.240Z,14.60
2022-11-08T22:08:52.134Z,15.05
2022-11-08T22:11:23.087Z,16.48
2022-11-08T22:13:52.826Z,13.45
2022-11-08T22:16:20.810Z,12.15
2022-11-08T22:19:09.408Z,17.88
2022-11-08T22:21:44.574Z,14.05
2022-11-08T22:24:17.391Z,14.13
2022-11-08T22:26:46.583Z,18.27
2022-11-08T22:29:17.607Z,16.48
2022-11-08T22:31:47.836Z,19.33
2022-11-08T22:34:16.154Z,14.63
2022-11-08T22:36:48.305Z,12.32
2022-11-08T22:39:17.700Z,12.52
2022-11-08T22:41:49.533Z,18.00
2022-11-08T22:44:20.194Z,20.45
2022-11-08T22:46:50.723Z,18.73
2022-11-08T22:49:21.561Z,15.35
2022-11-08T22:51:49.437Z,19.00
2022-11-08T22:54:20.318Z,15.95
2022-11-08T22:56:49.673Z,17.42
2022-11-08T22:59:20.169Z,14.32
2022-11-08T23:01:51.158Z,16.05
2022-11-08T23:04:22.166Z,18.75
2022-11-08T23:06:53.372Z,22.35
2022-11-08T23:09:21.397Z,22.73
2022-11-08T23:12:06.864Z,18.65
2022-11-08T23:14:54.510Z,15.10
2022-11-08T23:17:25.330Z,18.52
2022-11-08T23:20:10.830Z,19.75
2022-11-08T23:22:58.964Z,16.55
2022-11-08T23:25:26.980Z,19.42
2022-11-08T23:28:13.038Z,15.32
2022-11-08T23:31:02.772Z,16.33
2022-11-08T23:33:32.361Z,20.27
2022-11-08T23:36:12.403Z,19.15
2022-11-08T23:38:41.495Z,19.70
2022-11-08T23:41:27.427Z,16.17
2022-11-08T23:44:13.047Z,15.75
2022-11-08T23:46:45.593Z,18.52
2022-11-08T23:49:13.593Z,15.25
2022-11-08T23:51:45.471Z,18.50
2022-11-08T23:54:16.702Z,16.40
2022-11-08T23:56:45.667Z,18.05
2022-11-08T23:59:14.240Z,19.83
